sensor_id;sensor_type;location;lat;lon;timestamp;temperature;humidity
16321;DHT22;8269;50.990;4.494;2024-01-06T00:00:36;6.60;99.90
16321;DHT22;8269;50.990;4.494;2024-01-06T00:03:03;6.60;99.90
16321;DHT22;8269;50.990;4.494;2024-01-06T00:05:29;6.60;99.90
16321;DHT22;8269;50.990;4.494;2024-01-06T00:07:56;6.60;99.90
16321;DHT22;8269;50.990;4.494;2024-01-06T00:10:21;6.60;99.90
16321;DHT22;8269;50.990;4.494;2024-01-06T00:12:47;6.60;99.90
16321;DHT22;8269;50.990;4.494;2024-01-06T00:15:14;6.60;99.90
16321;DHT22;8269;50.990;4.494;2024-01-06T00:17:39;6.60;99.90
16321;DHT22;8269;50.990;4.494;2024-01-06T00:20:06;6.60;99.90
16321;DHT22;8269;50.990;4.494;2024-01-06T00:22:32;6.60;99.90
16321;DHT22;8269;50.990;4.494;2024-01-06T00:24:57;6.60;99.90
16321;DHT22;8269;50.990;4.494;2024-01-06T00:27:25;6.60;99.90
16321;DHT22;8269;50.990;4.494;2024-01-06T00:29:50;6.60;99.90
16321;DHT22;8269;50.990;4.494;2024-01-06T00:32:16;6.60;99.90
16321;DHT22;8269;50.990;4.494;2024-01-06T00:34:42;6.60;99.90
16321;DHT22;8269;50.990;4.494;2024-01-06T00:37:08;6.60;99.90
16321;DHT22;8269;50.990;4.494;2024-01-06T00:39:33;6.60;99.90
16321;DHT22;8269;50.990;4.494;2024-01-06T00:41:59;6.60;99.90
16321;DHT22;8269;50.990;4.494;2024-01-06T00:44:25;6.50;99.90
16321;DHT22;8269;50.990;4.494;2024-01-06T00:46:51;6.50;99.90
16321;DHT22;8269;50.990;4.494;2024-01-06T00:49:16;6.60;99.90
16321;DHT22;8269;50.990;4.494;2024-01-06T00:51:42;6.50;99.90
16321;DHT22;8269;50.990;4.494;2024-01-06T00:54:08;6.60;99.90
16321;DHT22;8269;50.990;4.494;2024-01-06T00:56:33;6.60;99.90
16321;DHT22;8269;50.990;4.494;2024-01-06T00:58:59;6.50;99.90
16321;DHT22;8269;50.990;4.494;2024-01-06T01:01:25;6.50;99.90
16321;DHT22;8269;50.990;4.494;2024-01-06T01:03:50;6.50;99.90
16321;DHT22;8269;50.990;4.494;2024-01-06T01:06:18;6.50;99.90
16321;DHT22;8269;50.990;4.494;2024-01-06T01:08:43;6.50;99.90
16321;DHT22;8269;50.990;4.494;2024-01-06T01:11:10;6.50;99.90
16321;DHT22;8269;50.990;4.494;2024-01-06T01:13:36;6.50;99.90
16321;DHT22;8269;50.990;4.494;2024-01-06T01:16:02;6.50;99.90
16321;DHT22;8269;50.990;4.494;2024-01-06T01:18:28;6.50;99.90
16321;DHT22;8269;50.990;4.494;2024-01-06T01:20:54;6.50;99.90
16321;DHT22;8269;50.990;4.494;2024-01-06T01:23:20;6.50;99.90
16321;DHT22;8269;50.990;4.494;2024-01-06T01:25:47;6.50;99.90
16321;DHT22;8269;50.990;4.494;2024-01-06T01:28:13;6.50;99.90
16321;DHT22;8269;50.990;4.494;2024-01-06T01:30:38;6.50;99.90
16321;DHT22;8269;50.990;4.494;2024-01-06T01:33:04;6.50;99.90
16321;DHT22;8269;50.990;4.494;2024-01-06T01:35:30;6.50;99.90
16321;DHT22;8269;50.990;4.494;2024-01-06T01:37:55;6.50;99.90
16321;DHT22;8269;50.990;4.494;2024-01-06T01:40:21;6.50;99.90
16321;DHT22;8269;50.990;4.494;2024-01-06T01:42:47;6.50;99.90
16321;DHT22;8269;50.990;4.494;2024-01-06T01:45:12;6.50;99.90
16321;DHT22;8269;50.990;4.494;2024-01-06T01:47:38;6.50;99.90
16321;DHT22;8269;50.990;4.494;2024-01-06T01:50:05;6.50;99.90
16321;DHT22;8269;50.990;4.494;2024-01-06T01:52:32;6.50;99.90
16321;DHT22;8269;50.990;4.494;2024-01-06T01:54:59;6.50;99.90
16321;DHT22;8269;50.990;4.494;2024-01-06T01:57:25;6.50;99.90
16321;DHT22;8269;50.990;4.494;2024-01-06T01:59:52;6.50;99.90
16321;DHT22;8269;50.990;4.494;2024-01-06T02:02:19;6.50;99.90
16321;DHT22;8269;50.990;4.494;2024-01-06T02:04:46;6.60;99.90
16321;DHT22;8269;50.990;4.494;2024-01-06T02:07:12;6.50;99.90
16321;DHT22;8269;50.990;4.494;2024-01-06T02:09:37;6.60;99.90
16321;DHT22;8269;50.990;4.494;2024-01-06T02:12:03;6.60;99.90
16321;DHT22;8269;50.990;4.494;2024-01-06T02:14:29;6.60;99.90
16321;DHT22;8269;50.990;4.494;2024-01-06T02:16:55;6.60;99.90
16321;DHT22;8269;50.990;4.494;2024-01-06T02:19:20;6.50;99.90
16321;DHT22;8269;50.990;4.494;2024-01-06T02:21:52;6.60;99.90
16321;DHT22;8269;50.990;4.494;2024-01-06T02:24:18;6.60;99.90
16321;DHT22;8269;50.990;4.494;2024-01-06T02:26:43;6.60;99.90
16321;DHT22;8269;50.990;4.494;2024-01-06T02:29:09;6.60;99.90
16321;DHT22;8269;50.990;4.494;2024-01-06T02:31:35;6.60;99.90
16321;DHT22;8269;50.990;4.494;2024-01-06T02:34:00;6.70;99.90
16321;DHT22;8269;50.990;4.494;2024-01-06T02:36:26;6.70;99.90
16321;DHT22;8269;50.990;4.494;2024-01-06T02:38:51;6.70;99.90
16321;DHT22;8269;50.990;4.494;2024-01-06T02:41:17;6.70;99.90
16321;DHT22;8269;50.990;4.494;2024-01-06T02:43:43;6.70;99.90
16321;DHT22;8269;50.990;4.494;2024-01-06T02:46:08;6.70;99.90
16321;DHT22;8269;50.990;4.494;2024-01-06T02:48:34;6.70;99.90
16321;DHT22;8269;50.990;4.494;2024-01-06T02:50:59;6.70;99.90
16321;DHT22;8269;50.990;4.494;2024-01-06T02:53:25;6.70;99.90
16321;DHT22;8269;50.990;4.494;2024-01-06T02:55:51;6.70;99.90
16321;DHT22;8269;50.990;4.494;2024-01-06T02:58:16;6.70;99.90
16321;DHT22;8269;50.990;4.494;2024-01-06T03:00:42;6.70;99.90
16321;DHT22;8269;50.990;4.494;2024-01-06T03:03:07;6.70;99.90
16321;DHT22;8269;50.990;4.494;2024-01-06T03:05:33;6.70;99.90
16321;DHT22;8269;50.990;4.494;2024-01-06T03:07:59;6.70;99.90
16321;DHT22;8269;50.990;4.494;2024-01-06T03:10:25;6.70;99.90
16321;DHT22;8269;50.990;4.494;2024-01-06T03:12:51;6.70;99.90
16321;DHT22;8269;50.990;4.494;2024-01-06T03:15:17;6.70;99.90
16321;DHT22;8269;50.990;4.494;2024-01-06T03:17:42;6.60;99.90
16321;DHT22;8269;50.990;4.494;2024-01-06T03:20:08;6.60;99.90
16321;DHT22;8269;50.990;4.494;2024-01-06T03:22:34;6.60;99.90
16321;DHT22;8269;50.990;4.494;2024-01-06T03:25:00;6.50;99.90
16321;DHT22;8269;50.990;4.494;2024-01-06T03:27:25;6.50;99.90
16321;DHT22;8269;50.990;4.494;2024-01-06T03:29:51;6.50;99.90
16321;DHT22;8269;50.990;4.494;2024-01-06T03:32:17;6.50;99.90
16321;DHT22;8269;50.990;4.494;2024-01-06T03:34:42;6.50;99.90
16321;DHT22;8269;50.990;4.494;2024-01-06T03:37:08;6.50;99.90
16321;DHT22;8269;50.990;4.494;2024-01-06T03:39:34;6.50;99.90
16321;DHT22;8269;50.990;4.494;2024-01-06T03:42:00;6.40;99.90
16321;DHT22;8269;50.990;4.494;2024-01-06T03:44:26;6.50;99.90
16321;DHT22;8269;50.990;4.494;2024-01-06T03:46:56;6.40;99.90
16321;DHT22;8269;50.990;4.494;2024-01-06T03:49:23;6.40;99.90
16321;DHT22;8269;50.990;4.494;2024-01-06T03:51:49;6.40;99.90
16321;DHT22;8269;50.990;4.494;2024-01-06T03:54:15;6.40;99.90
16321;DHT22;8269;50.990;4.494;2024-01-06T03:56:40;6.30;99.90
16321;DHT22;8269;50.990;4.494;2024-01-06T03:59:06;6.30;99.90
16321;DHT22;8269;50.990;4.494;2024-01-06T04:01:32;6.30;99.90
16321;DHT22;8269;50.990;4.494;2024-01-06T04:04:02;6.20;99.90
16321;DHT22;8269;50.990;4.494;2024-01-06T04:06:27;6.20;99.90
16321;DHT22;8269;50.990;4.494;2024-01-06T04:08:53;6.20;99.90
16321;DHT22;8269;50.990;4.494;2024-01-06T04:11:22;6.20;99.90
16321;DHT22;8269;50.990;4.494;2024-01-06T04:13:48;6.20;99.90
16321;DHT22;8269;50.990;4.494;2024-01-06T04:16:14;6.20;99.90
16321;DHT22;8269;50.990;4.494;2024-01-06T04:18:39;6.20;99.90
16321;DHT22;8269;50.990;4.494;2024-01-06T04:21:05;6.10;99.90
16321;DHT22;8269;50.990;4.494;2024-01-06T04:23:31;6.20;99.90
16321;DHT22;8269;50.990;4.494;2024-01-06T04:25:57;6.20;99.90
16321;DHT22;8269;50.990;4.494;2024-01-06T04:28:22;6.20;99.90
16321;DHT22;8269;50.990;4.494;2024-01-06T04:30:48;6.20;99.90
16321;DHT22;8269;50.990;4.494;2024-01-06T04:33:14;6.20;99.90
16321;DHT22;8269;50.990;4.494;2024-01-06T04:35:40;6.20;99.90
16321;DHT22;8269;50.990;4.494;2024-01-06T04:38:05;6.20;99.90
16321;DHT22;8269;50.990;4.494;2024-01-06T04:40:31;6.20;99.90
16321;DHT22;8269;50.990;4.494;2024-01-06T04:42:57;6.10;99.90
16321;DHT22;8269;50.990;4.494;2024-01-06T04:45:22;6.10;99.90
16321;DHT22;8269;50.990;4.494;2024-01-06T04:47:50;6.10;99.90
16321;DHT22;8269;50.990;4.494;2024-01-06T04:50:16;6.10;99.90
16321;DHT22;8269;50.990;4.494;2024-01-06T04:52:42;6.10;99.90
16321;DHT22;8269;50.990;4.494;2024-01-06T04:55:09;6.10;99.90
16321;DHT22;8269;50.990;4.494;2024-01-06T04:57:36;6.10;99.90
16321;DHT22;8269;50.990;4.494;2024-01-06T05:00:02;6.00;99.90
16321;DHT22;8269;50.990;4.494;2024-01-06T05:02:28;6.00;99.90
16321;DHT22;8269;50.990;4.494;2024-01-06T05:04:53;6.00;99.90
16321;DHT22;8269;50.990;4.494;2024-01-06T05:07:19;6.00;99.90
16321;DHT22;8269;50.990;4.494;2024-01-06T05:09:45;6.00;99.90
16321;DHT22;8269;50.990;4.494;2024-01-06T05:12:10;6.00;99.90
16321;DHT22;8269;50.990;4.494;2024-01-06T05:14:36;6.00;99.90
16321;DHT22;8269;50.990;4.494;2024-01-06T05:17:02;6.00;99.90
16321;DHT22;8269;50.990;4.494;2024-01-06T05:19:27;6.00;99.90
16321;DHT22;8269;50.990;4.494;2024-01-06T05:21:53;6.00;99.90
16321;DHT22;8269;50.990;4.494;2024-01-06T05:24:19;6.00;99.90
16321;DHT22;8269;50.990;4.494;2024-01-06T05:26:45;6.00;99.90
16321;DHT22;8269;50.990;4.494;2024-01-06T05:29:12;6.00;99.90
16321;DHT22;8269;50.990;4.494;2024-01-06T05:31:37;5.90;99.90
16321;DHT22;8269;50.990;4.494;2024-01-06T05:34:03;5.90;99.90
16321;DHT22;8269;50.990;4.494;2024-01-06T05:36:30;5.90;99.90
16321;DHT22;8269;50.990;4.494;2024-01-06T05:38:55;5.90;99.90
16321;DHT22;8269;50.990;4.494;2024-01-06T05:41:21;5.90;99.90
16321;DHT22;8269;50.990;4.494;2024-01-06T05:43:47;5.90;99.90
16321;DHT22;8269;50.990;4.494;2024-01-06T05:46:20;5.80;99.90
16321;DHT22;8269;50.990;4.494;2024-01-06T05:48:46;5.80;99.90
16321;DHT22;8269;50.990;4.494;2024-01-06T05:51:11;5.80;99.90
16321;DHT22;8269;50.990;4.494;2024-01-06T05:53:37;5.80;99.90
16321;DHT22;8269;50.990;4.494;2024-01-06T05:56:03;5.80;99.90
16321;DHT22;8269;50.990;4.494;2024-01-06T05:58:28;5.80;99.90
16321;DHT22;8269;50.990;4.494;2024-01-06T06:00:54;5.70;99.90
16321;DHT22;8269;50.990;4.494;2024-01-06T06:03:20;5.70;99.90
16321;DHT22;8269;50.990;4.494;2024-01-06T06:05:45;5.70;99.90
16321;DHT22;8269;50.990;4.494;2024-01-06T06:08:11;5.70;99.90
16321;DHT22;8269;50.990;4.494;2024-01-06T06:10:37;5.70;99.90
16321;DHT22;8269;50.990;4.494;2024-01-06T06:13:25;5.70;99.90
16321;DHT22;8269;50.990;4.494;2024-01-06T06:15:50;5.60;99.90
16321;DHT22;8269;50.990;4.494;2024-01-06T06:18:17;5.50;99.90
16321;DHT22;8269;50.990;4.494;2024-01-06T06:20:42;5.50;99.90
16321;DHT22;8269;50.990;4.494;2024-01-06T06:23:09;5.50;99.90
16321;DHT22;8269;50.990;4.494;2024-01-06T06:25:40;5.40;99.90
16321;DHT22;8269;50.990;4.494;2024-01-06T06:28:05;5.40;99.90
16321;DHT22;8269;50.990;4.494;2024-01-06T06:30:32;5.40;99.90
16321;DHT22;8269;50.990;4.494;2024-01-06T06:32:58;5.30;99.90
16321;DHT22;8269;50.990;4.494;2024-01-06T06:35:24;5.30;99.90
16321;DHT22;8269;50.990;4.494;2024-01-06T06:37:50;5.30;99.90
16321;DHT22;8269;50.990;4.494;2024-01-06T06:40:15;5.30;99.90
16321;DHT22;8269;50.990;4.494;2024-01-06T06:42:41;5.30;99.90
16321;DHT22;8269;50.990;4.494;2024-01-06T06:45:07;5.20;99.90
16321;DHT22;8269;50.990;4.494;2024-01-06T07:07:02;5.10;99.90
16321;DHT22;8269;50.990;4.494;2024-01-06T07:11:54;5.10;99.90
16321;DHT22;8269;50.990;4.494;2024-01-06T07:14:20;5.10;99.90
16321;DHT22;8269;50.990;4.494;2024-01-06T07:16:45;5.10;99.90
16321;DHT22;8269;50.990;4.494;2024-01-06T07:19:11;5.10;99.90
16321;DHT22;8269;50.990;4.494;2024-01-06T07:21:37;5.00;99.90
16321;DHT22;8269;50.990;4.494;2024-01-06T07:24:03;5.10;99.90
16321;DHT22;8269;50.990;4.494;2024-01-06T07:26:28;5.00;99.90
16321;DHT22;8269;50.990;4.494;2024-01-06T07:28:54;5.10;99.90
16321;DHT22;8269;50.990;4.494;2024-01-06T07:31:20;5.00;99.90
16321;DHT22;8269;50.990;4.494;2024-01-06T07:33:46;5.10;99.90
16321;DHT22;8269;50.990;4.494;2024-01-06T07:36:12;5.00;99.90
16321;DHT22;8269;50.990;4.494;2024-01-06T07:38:38;5.00;99.90
16321;DHT22;8269;50.990;4.494;2024-01-06T07:41:03;5.00;99.90
16321;DHT22;8269;50.990;4.494;2024-01-06T07:43:31;5.10;99.90
16321;DHT22;8269;50.990;4.494;2024-01-06T07:45:57;5.10;99.90
16321;DHT22;8269;50.990;4.494;2024-01-06T07:48:23;5.10;99.90
16321;DHT22;8269;50.990;4.494;2024-01-06T07:50:48;5.10;99.90
16321;DHT22;8269;50.990;4.494;2024-01-06T07:53:14;5.00;99.90
16321;DHT22;8269;50.990;4.494;2024-01-06T07:55:40;5.10;99.90
16321;DHT22;8269;50.990;4.494;2024-01-06T07:58:06;5.10;99.90
16321;DHT22;8269;50.990;4.494;2024-01-06T08:00:31;5.10;99.90
16321;DHT22;8269;50.990;4.494;2024-01-06T08:02:57;5.10;99.90
16321;DHT22;8269;50.990;4.494;2024-01-06T08:05:23;5.10;99.90
16321;DHT22;8269;50.990;4.494;2024-01-06T08:07:50;5.10;99.90
16321;DHT22;8269;50.990;4.494;2024-01-06T08:10:16;5.10;99.90
16321;DHT22;8269;50.990;4.494;2024-01-06T08:12:42;5.10;99.90
16321;DHT22;8269;50.990;4.494;2024-01-06T08:15:08;5.10;99.90
16321;DHT22;8269;50.990;4.494;2024-01-06T08:17:35;5.10;99.90
16321;DHT22;8269;50.990;4.494;2024-01-06T08:20:01;5.10;99.90
16321;DHT22;8269;50.990;4.494;2024-01-06T08:22:27;5.10;99.90
16321;DHT22;8269;50.990;4.494;2024-01-06T08:24:52;5.10;99.90
16321;DHT22;8269;50.990;4.494;2024-01-06T08:27:18;5.10;99.90
16321;DHT22;8269;50.990;4.494;2024-01-06T08:29:44;5.20;99.90
16321;DHT22;8269;50.990;4.494;2024-01-06T08:32:09;5.20;99.90
16321;DHT22;8269;50.990;4.494;2024-01-06T08:34:36;5.20;99.90
16321;DHT22;8269;50.990;4.494;2024-01-06T08:37:02;5.20;99.90
16321;DHT22;8269;50.990;4.494;2024-01-06T08:39:29;5.20;99.90
16321;DHT22;8269;50.990;4.494;2024-01-06T08:41:55;5.20;99.90
16321;DHT22;8269;50.990;4.494;2024-01-06T08:44:20;5.20;99.90
16321;DHT22;8269;50.990;4.494;2024-01-06T08:46:46;5.10;99.90
16321;DHT22;8269;50.990;4.494;2024-01-06T08:49:11;5.10;99.90
16321;DHT22;8269;50.990;4.494;2024-01-06T08:51:37;5.10;99.90
16321;DHT22;8269;50.990;4.494;2024-01-06T08:54:03;5.10;99.90
16321;DHT22;8269;50.990;4.494;2024-01-06T08:56:33;5.10;99.90
16321;DHT22;8269;50.990;4.494;2024-01-06T08:58:58;5.10;99.90
16321;DHT22;8269;50.990;4.494;2024-01-06T09:01:24;5.10;99.90
16321;DHT22;8269;50.990;4.494;2024-01-06T09:03:50;5.20;99.90
16321;DHT22;8269;50.990;4.494;2024-01-06T09:06:16;5.10;99.90
16321;DHT22;8269;50.990;4.494;2024-01-06T09:08:41;5.10;99.90
16321;DHT22;8269;50.990;4.494;2024-01-06T09:11:07;5.10;99.90
16321;DHT22;8269;50.990;4.494;2024-01-06T09:13:33;5.10;99.90
16321;DHT22;8269;50.990;4.494;2024-01-06T09:15:59;5.00;99.90
16321;DHT22;8269;50.990;4.494;2024-01-06T09:18:26;5.00;99.90
16321;DHT22;8269;50.990;4.494;2024-01-06T09:20:52;5.00;99.90
16321;DHT22;8269;50.990;4.494;2024-01-06T09:23:20;4.90;99.90
16321;DHT22;8269;50.990;4.494;2024-01-06T09:25:46;5.10;99.90
16321;DHT22;8269;50.990;4.494;2024-01-06T09:28:15;5.10;99.90
16321;DHT22;8269;50.990;4.494;2024-01-06T09:30:41;5.00;99.90
16321;DHT22;8269;50.990;4.494;2024-01-06T09:33:06;5.00;99.90
16321;DHT22;8269;50.990;4.494;2024-01-06T09:35:33;5.00;99.90
16321;DHT22;8269;50.990;4.494;2024-01-06T09:37:59;5.10;99.90
16321;DHT22;8269;50.990;4.494;2024-01-06T09:40:25;5.10;99.90
16321;DHT22;8269;50.990;4.494;2024-01-06T09:42:51;5.00;99.90
16321;DHT22;8269;50.990;4.494;2024-01-06T09:45:17;5.00;99.90
16321;DHT22;8269;50.990;4.494;2024-01-06T09:47:45;5.10;99.90
16321;DHT22;8269;50.990;4.494;2024-01-06T09:50:14;5.00;99.90
16321;DHT22;8269;50.990;4.494;2024-01-06T09:52:45;5.00;99.90
16321;DHT22;8269;50.990;4.494;2024-01-06T09:55:18;4.90;99.90
16321;DHT22;8269;50.990;4.494;2024-01-06T09:57:47;4.90;99.90
16321;DHT22;8269;50.990;4.494;2024-01-06T10:00:13;4.90;99.90
16321;DHT22;8269;50.990;4.494;2024-01-06T10:02:39;4.90;99.90
16321;DHT22;8269;50.990;4.494;2024-01-06T10:05:06;4.90;99.90
16321;DHT22;8269;50.990;4.494;2024-01-06T10:07:32;4.90;99.90
16321;DHT22;8269;50.990;4.494;2024-01-06T10:09:58;4.90;99.90
16321;DHT22;8269;50.990;4.494;2024-01-06T10:12:27;4.90;99.90
16321;DHT22;8269;50.990;4.494;2024-01-06T10:14:53;4.90;99.90
16321;DHT22;8269;50.990;4.494;2024-01-06T10:17:19;5.00;99.90
16321;DHT22;8269;50.990;4.494;2024-01-06T10:19:46;5.00;99.90
16321;DHT22;8269;50.990;4.494;2024-01-06T10:22:13;5.00;99.90
16321;DHT22;8269;50.990;4.494;2024-01-06T10:24:38;5.00;99.90
16321;DHT22;8269;50.990;4.494;2024-01-06T10:27:04;5.00;99.90
16321;DHT22;8269;50.990;4.494;2024-01-06T10:29:30;5.00;99.90
16321;DHT22;8269;50.990;4.494;2024-01-06T10:31:56;5.00;99.90
16321;DHT22;8269;50.990;4.494;2024-01-06T10:34:23;4.90;99.90
16321;DHT22;8269;50.990;4.494;2024-01-06T10:36:50;4.90;99.90
16321;DHT22;8269;50.990;4.494;2024-01-06T10:39:18;4.90;99.90
16321;DHT22;8269;50.990;4.494;2024-01-06T10:41:44;4.90;99.90
16321;DHT22;8269;50.990;4.494;2024-01-06T10:44:11;4.90;99.90
16321;DHT22;8269;50.990;4.494;2024-01-06T10:46:38;4.90;99.90
16321;DHT22;8269;50.990;4.494;2024-01-06T10:49:05;4.90;99.90
16321;DHT22;8269;50.990;4.494;2024-01-06T10:51:34;4.90;99.90
16321;DHT22;8269;50.990;4.494;2024-01-06T10:54:01;4.90;99.90
16321;DHT22;8269;50.990;4.494;2024-01-06T10:56:28;4.90;99.90
16321;DHT22;8269;50.990;4.494;2024-01-06T10:58:56;4.90;99.90
16321;DHT22;8269;50.990;4.494;2024-01-06T11:01:23;4.90;99.90
16321;DHT22;8269;50.990;4.494;2024-01-06T11:03:54;4.90;99.90
16321;DHT22;8269;50.990;4.494;2024-01-06T11:06:20;4.80;99.90
16321;DHT22;8269;50.990;4.494;2024-01-06T11:11:32;4.80;99.90
16321;DHT22;8269;50.990;4.494;2024-01-06T11:14:19;4.80;99.90
16321;DHT22;8269;50.990;4.494;2024-01-06T11:16:45;4.70;99.90
16321;DHT22;8269;50.990;4.494;2024-01-06T11:24:47;4.70;99.90
16321;DHT22;8269;50.990;4.494;2024-01-06T11:27:20;4.60;99.90
16321;DHT22;8269;50.990;4.494;2024-01-06T11:29:48;4.60;99.90
16321;DHT22;8269;50.990;4.494;2024-01-06T11:34:53;4.50;99.90
16321;DHT22;8269;50.990;4.494;2024-01-06T11:37:24;4.50;99.90
16321;DHT22;8269;50.990;4.494;2024-01-06T11:39:51;4.60;99.90
16321;DHT22;8269;50.990;4.494;2024-01-06T11:42:16;4.60;99.90
16321;DHT22;8269;50.990;4.494;2024-01-06T11:44:50;4.60;99.90
16321;DHT22;8269;50.990;4.494;2024-01-06T11:47:17;4.60;99.90
16321;DHT22;8269;50.990;4.494;2024-01-06T11:49:51;4.60;99.90
16321;DHT22;8269;50.990;4.494;2024-01-06T11:52:19;4.60;99.90
16321;DHT22;8269;50.990;4.494;2024-01-06T11:54:45;4.50;99.90
16321;DHT22;8269;50.990;4.494;2024-01-06T11:57:11;4.60;99.90
16321;DHT22;8269;50.990;4.494;2024-01-06T11:59:36;4.70;99.90
16321;DHT22;8269;50.990;4.494;2024-01-06T12:02:03;4.70;99.90
16321;DHT22;8269;50.990;4.494;2024-01-06T12:04:28;4.70;99.90
16321;DHT22;8269;50.990;4.494;2024-01-06T12:07:05;4.80;99.90
16321;DHT22;8269;50.990;4.494;2024-01-06T12:09:31;4.80;99.90
16321;DHT22;8269;50.990;4.494;2024-01-06T12:12:06;4.90;99.90
16321;DHT22;8269;50.990;4.494;2024-01-06T12:14:32;4.80;99.90
16321;DHT22;8269;50.990;4.494;2024-01-06T12:17:01;4.90;99.90
16321;DHT22;8269;50.990;4.494;2024-01-06T12:19:33;4.90;99.90
16321;DHT22;8269;50.990;4.494;2024-01-06T12:21:59;4.80;99.90
16321;DHT22;8269;50.990;4.494;2024-01-06T12:24:27;4.80;99.90
16321;DHT22;8269;50.990;4.494;2024-01-06T12:26:56;4.80;99.90
16321;DHT22;8269;50.990;4.494;2024-01-06T12:29:26;4.80;99.90
16321;DHT22;8269;50.990;4.494;2024-01-06T12:31:53;4.80;99.90
16321;DHT22;8269;50.990;4.494;2024-01-06T12:34:18;4.90;99.90
16321;DHT22;8269;50.990;4.494;2024-01-06T12:36:45;4.80;99.90
16321;DHT22;8269;50.990;4.494;2024-01-06T12:39:13;4.80;99.90
16321;DHT22;8269;50.990;4.494;2024-01-06T12:41:42;4.80;99.90
16321;DHT22;8269;50.990;4.494;2024-01-06T12:44:09;4.80;99.90
16321;DHT22;8269;50.990;4.494;2024-01-06T12:46:35;4.80;99.90
16321;DHT22;8269;50.990;4.494;2024-01-06T12:49:01;4.80;99.90
16321;DHT22;8269;50.990;4.494;2024-01-06T12:51:27;4.80;99.90
16321;DHT22;8269;50.990;4.494;2024-01-06T12:53:53;4.80;99.90
16321;DHT22;8269;50.990;4.494;2024-01-06T12:56:19;4.80;99.90
16321;DHT22;8269;50.990;4.494;2024-01-06T12:58:45;4.80;99.90
16321;DHT22;8269;50.990;4.494;2024-01-06T13:01:10;4.80;99.90
16321;DHT22;8269;50.990;4.494;2024-01-06T13:03:36;4.80;99.90
16321;DHT22;8269;50.990;4.494;2024-01-06T13:06:02;4.80;99.90
16321;DHT22;8269;50.990;4.494;2024-01-06T13:08:28;4.80;99.90
16321;DHT22;8269;50.990;4.494;2024-01-06T13:10:55;4.80;99.90
16321;DHT22;8269;50.990;4.494;2024-01-06T13:13:21;4.80;99.90
16321;DHT22;8269;50.990;4.494;2024-01-06T13:15:47;4.80;99.90
16321;DHT22;8269;50.990;4.494;2024-01-06T13:18:13;4.80;99.90
16321;DHT22;8269;50.990;4.494;2024-01-06T13:20:39;4.80;99.90
16321;DHT22;8269;50.990;4.494;2024-01-06T13:23:09;4.80;99.90
16321;DHT22;8269;50.990;4.494;2024-01-06T13:25:37;4.70;99.90
16321;DHT22;8269;50.990;4.494;2024-01-06T13:28:05;4.80;99.90
16321;DHT22;8269;50.990;4.494;2024-01-06T13:30:31;4.70;99.90
16321;DHT22;8269;50.990;4.494;2024-01-06T13:32:58;4.70;99.90
16321;DHT22;8269;50.990;4.494;2024-01-06T13:35:24;4.60;99.90
16321;DHT22;8269;50.990;4.494;2024-01-06T13:37:53;4.70;99.90
16321;DHT22;8269;50.990;4.494;2024-01-06T13:40:21;4.60;99.90
16321;DHT22;8269;50.990;4.494;2024-01-06T13:42:48;4.60;99.90
16321;DHT22;8269;50.990;4.494;2024-01-06T13:45:14;4.70;99.90
16321;DHT22;8269;50.990;4.494;2024-01-06T13:47:40;4.70;99.90
16321;DHT22;8269;50.990;4.494;2024-01-06T13:50:14;4.70;99.90
16321;DHT22;8269;50.990;4.494;2024-01-06T13:52:41;4.70;99.90
16321;DHT22;8269;50.990;4.494;2024-01-06T13:55:07;4.70;99.90
16321;DHT22;8269;50.990;4.494;2024-01-06T13:57:34;4.70;99.90
16321;DHT22;8269;50.990;4.494;2024-01-06T14:00:00;4.70;99.90
16321;DHT22;8269;50.990;4.494;2024-01-06T14:02:26;4.70;99.90
16321;DHT22;8269;50.990;4.494;2024-01-06T14:04:51;4.80;99.90
16321;DHT22;8269;50.990;4.494;2024-01-06T14:07:17;4.80;99.90
16321;DHT22;8269;50.990;4.494;2024-01-06T14:09:48;4.80;99.90
16321;DHT22;8269;50.990;4.494;2024-01-06T14:12:14;4.70;99.90
16321;DHT22;8269;50.990;4.494;2024-01-06T14:14:40;4.70;99.90
16321;DHT22;8269;50.990;4.494;2024-01-06T14:17:08;4.70;99.90
16321;DHT22;8269;50.990;4.494;2024-01-06T14:19:34;4.70;99.90
16321;DHT22;8269;50.990;4.494;2024-01-06T14:22:00;4.70;99.90
16321;DHT22;8269;50.990;4.494;2024-01-06T14:24:25;4.70;99.90
16321;DHT22;8269;50.990;4.494;2024-01-06T14:26:53;4.70;99.90
16321;DHT22;8269;50.990;4.494;2024-01-06T14:29:19;4.60;99.90
16321;DHT22;8269;50.990;4.494;2024-01-06T14:31:45;4.60;99.90
16321;DHT22;8269;50.990;4.494;2024-01-06T14:34:11;4.60;99.90
16321;DHT22;8269;50.990;4.494;2024-01-06T14:36:36;4.30;99.90
16321;DHT22;8269;50.990;4.494;2024-01-06T14:39:03;4.60;99.90
16321;DHT22;8269;50.990;4.494;2024-01-06T14:41:32;4.60;99.90
16321;DHT22;8269;50.990;4.494;2024-01-06T14:43:57;4.60;99.90
16321;DHT22;8269;50.990;4.494;2024-01-06T14:46:24;4.60;99.90
16321;DHT22;8269;50.990;4.494;2024-01-06T14:48:49;4.60;99.90
16321;DHT22;8269;50.990;4.494;2024-01-06T14:51:15;4.70;99.90
16321;DHT22;8269;50.990;4.494;2024-01-06T14:53:41;4.60;99.90
16321;DHT22;8269;50.990;4.494;2024-01-06T14:56:07;4.60;99.90
16321;DHT22;8269;50.990;4.494;2024-01-06T14:58:32;4.60;99.90
16321;DHT22;8269;50.990;4.494;2024-01-06T15:00:58;4.60;99.90
16321;DHT22;8269;50.990;4.494;2024-01-06T15:03:25;4.60;99.90
16321;DHT22;8269;50.990;4.494;2024-01-06T15:05:50;4.60;99.90
16321;DHT22;8269;50.990;4.494;2024-01-06T15:08:16;4.60;99.90
16321;DHT22;8269;50.990;4.494;2024-01-06T15:10:41;4.70;99.90
16321;DHT22;8269;50.990;4.494;2024-01-06T15:13:07;4.70;99.90
16321;DHT22;8269;50.990;4.494;2024-01-06T15:15:33;4.70;99.90
16321;DHT22;8269;50.990;4.494;2024-01-06T15:17:58;4.70;99.90
16321;DHT22;8269;50.990;4.494;2024-01-06T15:20:24;4.70;99.90
16321;DHT22;8269;50.990;4.494;2024-01-06T15:22:50;4.80;99.90
16321;DHT22;8269;50.990;4.494;2024-01-06T15:25:15;4.70;99.90
16321;DHT22;8269;50.990;4.494;2024-01-06T15:27:43;4.70;99.90
16321;DHT22;8269;50.990;4.494;2024-01-06T15:30:09;4.60;99.90
16321;DHT22;8269;50.990;4.494;2024-01-06T15:32:36;4.60;99.90
16321;DHT22;8269;50.990;4.494;2024-01-06T15:35:02;4.70;99.90
16321;DHT22;8269;50.990;4.494;2024-01-06T15:37:29;4.60;99.90
16321;DHT22;8269;50.990;4.494;2024-01-06T15:42:21;4.60;99.90
16321;DHT22;8269;50.990;4.494;2024-01-06T15:44:47;4.60;99.90
16321;DHT22;8269;50.990;4.494;2024-01-06T15:47:12;4.60;99.90
16321;DHT22;8269;50.990;4.494;2024-01-06T15:49:38;4.60;99.90
16321;DHT22;8269;50.990;4.494;2024-01-06T15:52:04;4.60;99.90
16321;DHT22;8269;50.990;4.494;2024-01-06T15:54:33;4.60;99.90
16321;DHT22;8269;50.990;4.494;2024-01-06T15:56:58;4.60;99.90
16321;DHT22;8269;50.990;4.494;2024-01-06T15:59:24;4.60;99.90
16321;DHT22;8269;50.990;4.494;2024-01-06T16:01:50;4.70;99.90
16321;DHT22;8269;50.990;4.494;2024-01-06T16:04:15;4.70;99.90
16321;DHT22;8269;50.990;4.494;2024-01-06T16:06:41;4.70;99.90
16321;DHT22;8269;50.990;4.494;2024-01-06T16:09:07;4.60;99.90
16321;DHT22;8269;50.990;4.494;2024-01-06T16:11:37;4.60;99.90
16321;DHT22;8269;50.990;4.494;2024-01-06T16:14:03;4.60;99.90
16321;DHT22;8269;50.990;4.494;2024-01-06T16:16:29;4.60;99.90
16321;DHT22;8269;50.990;4.494;2024-01-06T16:18:54;4.60;99.90
16321;DHT22;8269;50.990;4.494;2024-01-06T16:21:24;4.60;99.90
16321;DHT22;8269;50.990;4.494;2024-01-06T16:23:50;4.60;99.90
16321;DHT22;8269;50.990;4.494;2024-01-06T16:26:16;4.60;99.90
16321;DHT22;8269;50.990;4.494;2024-01-06T16:28:42;4.60;99.90
16321;DHT22;8269;50.990;4.494;2024-01-06T16:31:08;4.40;99.90